sensor_id;sensor_type;location;lat;lon;timestamp;pressure;altitude;pressure_sealevel;temperature;humidity
48872;BME280;36154;51.674;7.824;2023-04-09T00:00:31;101792.28;;;19.67;59.27
48872;BME280;36154;51.674;7.824;2023-04-09T00:02:56;101791.38;;;19.68;59.32
48872;BME280;36154;51.674;7.824;2023-04-09T00:05:22;101797.44;;;19.67;59.28
48872;BME280;36154;51.674;7.824;2023-04-09T00:07:47;101796.56;;;19.68;59.04
48872;BME280;36154;51.674;7.824;2023-04-09T00:10:12;101790.53;;;19.67;59.20
48872;BME280;36154;51.674;7.824;2023-04-09T00:12:38;101794.84;;;19.68;59.05
48872;BME280;36154;51.674;7.824;2023-04-09T00:15:03;101794.84;;;19.67;58.87
48872;BME280;36154;51.674;7.824;2023-04-09T00:17:29;101787.94;;;19.67;58.90
48872;BME280;36154;51.674;7.824;2023-04-09T00:19:54;101791.38;;;19.68;58.80
48872;BME280;36154;51.674;7.824;2023-04-09T00:22:20;101792.28;;;19.67;58.78
48872;BME280;36154;51.674;7.824;2023-04-09T00:24:45;101787.94;;;19.67;58.72
48872;BME280;36154;51.674;7.824;2023-04-09T00:27:13;101788.78;;;19.68;58.73
48872;BME280;36154;51.674;7.824;2023-04-09T00:29:38;101783.63;;;19.68;58.21
48872;BME280;36154;51.674;7.824;2023-04-09T00:32:04;101788.78;;;19.68;58.53
48872;BME280;36154;51.674;7.824;2023-04-09T00:34:29;101783.63;;;19.68;58.36
48872;BME280;36154;51.674;7.824;2023-04-09T00:36:54;101784.50;;;19.68;58.39
48872;BME280;36154;51.674;7.824;2023-04-09T00:39:20;101784.50;;;19.68;58.37
48872;BME280;36154;51.674;7.824;2023-04-09T00:41:45;101775.88;;;19.68;58.15
48872;BME280;36154;51.674;7.824;2023-04-09T00:44:10;101779.34;;;19.67;58.08
48872;BME280;36154;51.674;7.824;2023-04-09T00:46:36;101779.34;;;19.67;58.10
48872;BME280;36154;51.674;7.824;2023-04-09T00:49:01;101777.59;;;19.67;58.06
48872;BME280;36154;51.674;7.824;2023-04-09T00:51:26;101779.34;;;19.67;57.92
48872;BME280;36154;51.674;7.824;2023-04-09T00:53:53;101771.59;;;19.67;57.90
48872;BME280;36154;51.674;7.824;2023-04-09T00:56:20;101776.75;;;19.67;57.61
48872;BME280;36154;51.674;7.824;2023-04-09T00:58:46;101777.59;;;19.67;57.63
48872;BME280;36154;51.674;7.824;2023-04-09T01:01:12;101782.78;;;19.67;57.51
48872;BME280;36154;51.674;7.824;2023-04-09T01:03:37;101776.75;;;19.67;57.46
48872;BME280;36154;51.674;7.824;2023-04-09T01:06:27;101774.16;;;19.67;57.53
48872;BME280;36154;51.674;7.824;2023-04-09T01:09:08;101773.31;;;19.66;57.34
48872;BME280;36154;51.674;7.824;2023-04-09T01:11:49;101779.34;;;19.67;57.14
48872;BME280;36154;51.674;7.824;2023-04-09T01:17:06;101776.75;;;19.67;57.19
48872;BME280;36154;51.674;7.824;2023-04-09T01:22:47;101766.41;;;19.67;56.92
48872;BME280;36154;51.674;7.824;2023-04-09T01:26:20;101769.84;;;19.66;57.03
48872;BME280;36154;51.674;7.824;2023-04-09T01:28:21;101768.16;;;19.65;56.84
48872;BME280;36154;51.674;7.824;2023-04-09T01:30:49;101765.56;;;19.65;56.87
48872;BME280;36154;51.674;7.824;2023-04-09T01:33:17;101765.56;;;19.66;56.72
48872;BME280;36154;51.674;7.824;2023-04-09T01:35:45;101769.84;;;19.66;56.57
48872;BME280;36154;51.674;7.824;2023-04-09T01:38:15;101762.94;;;19.68;56.69
48872;BME280;36154;51.674;7.824;2023-04-09T01:40:42;101765.53;;;19.68;56.58
48872;BME280;36154;51.674;7.824;2023-04-09T01:43:09;101772.44;;;19.67;56.57
48872;BME280;36154;51.674;7.824;2023-04-09T01:45:35;101766.41;;;19.67;56.36
48872;BME280;36154;51.674;7.824;2023-04-09T01:48:01;101769.00;;;19.68;56.46
48872;BME280;36154;51.674;7.824;2023-04-09T01:50:27;101774.16;;;19.68;56.48
48872;BME280;36154;51.674;7.824;2023-04-09T01:52:53;101771.59;;;19.68;56.45
48872;BME280;36154;51.674;7.824;2023-04-09T01:55:19;101765.53;;;19.68;56.14
48872;BME280;36154;51.674;7.824;2023-04-09T01:57:44;101767.25;;;19.69;56.16
48872;BME280;36154;51.674;7.824;2023-04-09T02:00:10;101763.81;;;19.68;56.00
48872;BME280;36154;51.674;7.824;2023-04-09T02:02:43;101766.41;;;19.68;55.89
48872;BME280;36154;51.674;7.824;2023-04-09T02:05:14;101768.13;;;19.68;56.05
48872;BME280;36154;51.674;7.824;2023-04-09T02:07:47;101770.69;;;19.68;55.96
48872;BME280;36154;51.674;7.824;2023-04-09T02:10:17;101762.94;;;19.68;55.79
48872;BME280;36154;51.674;7.824;2023-04-09T02:12:48;101763.81;;;19.68;55.65
48872;BME280;36154;51.674;7.824;2023-04-09T02:15:15;101765.53;;;19.69;55.78
48872;BME280;36154;51.674;7.824;2023-04-09T02:17:40;101768.13;;;19.68;55.69
48872;BME280;36154;51.674;7.824;2023-04-09T02:20:06;101770.69;;;19.69;55.73
48872;BME280;36154;51.674;7.824;2023-04-09T02:22:32;101765.53;;;19.68;55.68
48872;BME280;36154;51.674;7.824;2023-04-09T02:24:57;101764.66;;;19.69;55.03
48872;BME280;36154;51.674;7.824;2023-04-09T02:27:22;101764.66;;;19.69;55.64
48872;BME280;36154;51.674;7.824;2023-04-09T02:29:48;101752.59;;;19.68;55.41
48872;BME280;36154;51.674;7.824;2023-04-09T02:32:13;101757.78;;;19.68;55.46
48872;BME280;36154;51.674;7.824;2023-04-09T02:34:38;101752.66;;;19.65;55.26
48872;BME280;36154;51.674;7.824;2023-04-09T02:37:03;101759.50;;;19.69;55.35
48872;BME280;36154;51.674;7.824;2023-04-09T02:39:31;101761.22;;;19.70;55.26
48872;BME280;36154;51.674;7.824;2023-04-09T02:41:56;101754.34;;;19.69;55.28
48872;BME280;36154;51.674;7.824;2023-04-09T02:44:22;101754.34;;;19.69;54.63
48872;BME280;36154;51.674;7.824;2023-04-09T02:46:49;101750.00;;;19.68;55.07
48872;BME280;36154;51.674;7.824;2023-04-09T02:49:15;101748.31;;;19.68;55.13
48872;BME280;36154;51.674;7.824;2023-04-09T02:51:40;101749.16;;;19.69;55.08
48872;BME280;36154;51.674;7.824;2023-04-09T02:54:06;101743.97;;;19.69;55.17
48872;BME280;36154;51.674;7.824;2023-04-09T02:56:31;101742.25;;;19.68;54.99
48872;BME280;36154;51.674;7.824;2023-04-09T02:58:56;101731.06;;;19.69;54.79
48872;BME280;36154;51.674;7.824;2023-04-09T03:01:22;101737.97;;;19.68;54.88
48872;BME280;36154;51.674;7.824;2023-04-09T03:03:47;101737.09;;;19.68;54.77
48872;BME280;36154;51.674;7.824;2023-04-09T03:06:12;101743.13;;;19.68;54.83
48872;BME280;36154;51.674;7.824;2023-04-09T03:08:38;101737.09;;;19.68;54.62
48872;BME280;36154;51.674;7.824;2023-04-09T03:11:03;101739.66;;;19.68;54.84
48872;BME280;36154;51.674;7.824;2023-04-09T03:13:28;101737.09;;;19.68;54.66
48872;BME280;36154;51.674;7.824;2023-04-09T03:15:54;101731.06;;;19.67;54.69
48872;BME280;36154;51.674;7.824;2023-04-09T03:18:19;101729.34;;;19.68;54.54
48872;BME280;36154;51.674;7.824;2023-04-09T03:20:44;101724.16;;;19.68;54.60
48872;BME280;36154;51.674;7.824;2023-04-09T03:23:10;101729.38;;;19.66;54.39
48872;BME280;36154;51.674;7.824;2023-04-09T03:25:35;101724.16;;;19.68;54.58
48872;BME280;36154;51.674;7.824;2023-04-09T03:28:01;101722.44;;;19.68;54.36
48872;BME280;36154;51.674;7.824;2023-04-09T03:30:27;101725.91;;;19.67;54.42
48872;BME280;36154;51.674;7.824;2023-04-09T03:32:52;101721.56;;;19.68;54.16
48872;BME280;36154;51.674;7.824;2023-04-09T03:35:17;101721.56;;;19.68;54.33
48872;BME280;36154;51.674;7.824;2023-04-09T03:37:43;101721.56;;;19.68;54.24
48872;BME280;36154;51.674;7.824;2023-04-09T03:40:08;101721.56;;;19.68;54.08
48872;BME280;36154;51.674;7.824;2023-04-09T03:42:34;101719.88;;;19.67;54.31
48872;BME280;36154;51.674;7.824;2023-04-09T03:45:00;101716.41;;;19.68;54.15
48872;BME280;36154;51.674;7.824;2023-04-09T03:47:26;101719.88;;;19.67;54.00
48872;BME280;36154;51.674;7.824;2023-04-09T03:49:51;101719.88;;;19.67;53.93
48872;BME280;36154;51.674;7.824;2023-04-09T03:52:16;101718.13;;;19.67;54.01
48872;BME280;36154;51.674;7.824;2023-04-09T03:54:41;101716.41;;;19.68;53.87
48872;BME280;36154;51.674;7.824;2023-04-09T03:57:07;101708.69;;;19.66;53.96
48872;BME280;36154;51.674;7.824;2023-04-09T03:59:32;101710.38;;;19.67;53.93
48872;BME280;36154;51.674;7.824;2023-04-09T04:01:58;101712.13;;;19.65;53.78
48872;BME280;36154;51.674;7.824;2023-04-09T04:04:23;101710.38;;;19.66;53.94
48872;BME280;36154;51.674;7.824;2023-04-09T04:06:48;101718.16;;;19.66;53.82
48872;BME280;36154;51.674;7.824;2023-04-09T04:09:14;101712.13;;;19.65;53.47
48872;BME280;36154;51.674;7.824;2023-04-09T04:11:39;101719.03;;;19.66;53.65
48872;BME280;36154;51.674;7.824;2023-04-09T04:14:05;101712.97;;;19.66;53.71
48872;BME280;36154;51.674;7.824;2023-04-09T04:16:30;101717.31;;;19.65;53.61
48872;BME280;36154;51.674;7.824;2023-04-09T04:18:56;101717.31;;;19.65;53.44
48872;BME280;36154;51.674;7.824;2023-04-09T04:21:21;101715.56;;;19.64;53.59
48872;BME280;36154;51.674;7.824;2023-04-09T04:23:47;101719.91;;;19.64;53.54
48872;BME280;36154;51.674;7.824;2023-04-09T04:26:12;101718.16;;;19.63;53.51
48872;BME280;36154;51.674;7.824;2023-04-09T04:28:38;101720.75;;;19.63;53.43
48872;BME280;36154;51.674;7.824;2023-04-09T04:31:11;101717.31;;;19.64;53.42
48872;BME280;36154;51.674;7.824;2023-04-09T04:33:38;101719.91;;;19.64;53.30
48872;BME280;36154;51.674;7.824;2023-04-09T04:36:11;101718.16;;;19.63;53.39
48872;BME280;36154;51.674;7.824;2023-04-09T04:38:37;101722.47;;;19.64;53.11
48872;BME280;36154;51.674;7.824;2023-04-09T04:41:03;101725.94;;;19.63;53.21
48872;BME280;36154;51.674;7.824;2023-04-09T04:43:28;101729.38;;;19.63;53.27
48872;BME280;36154;51.674;7.824;2023-04-09T04:45:54;101726.81;;;19.63;53.30
48872;BME280;36154;51.674;7.824;2023-04-09T04:48:19;101729.38;;;19.62;53.02
48872;BME280;36154;51.674;7.824;2023-04-09T04:50:45;101724.19;;;19.62;53.05
48872;BME280;36154;51.674;7.824;2023-04-09T04:53:11;101724.22;;;19.63;53.10
48872;BME280;36154;51.674;7.824;2023-04-09T04:55:36;101722.47;;;19.62;53.15
48872;BME280;36154;51.674;7.824;2023-04-09T04:58:04;101723.34;;;19.63;53.09
48872;BME280;36154;51.674;7.824;2023-04-09T05:00:29;101718.16;;;19.63;53.01
48872;BME280;36154;51.674;7.824;2023-04-09T05:02:55;101724.19;;;19.60;52.98
48872;BME280;36154;51.674;7.824;2023-04-09T05:05:23;101721.59;;;19.62;52.88
48872;BME280;36154;51.674;7.824;2023-04-09T05:07:48;101729.38;;;19.62;53.04
48872;BME280;36154;51.674;7.824;2023-04-09T05:10:13;101726.78;;;19.62;52.97
48872;BME280;36154;51.674;7.824;2023-04-09T05:12:38;101725.94;;;19.63;52.98
48872;BME280;36154;51.674;7.824;2023-04-09T05:15:04;101723.31;;;19.61;52.83
48872;BME280;36154;51.674;7.824;2023-04-09T05:17:30;101721.59;;;19.62;52.66
48872;BME280;36154;51.674;7.824;2023-04-09T05:19:55;101716.44;;;19.62;52.71
48872;BME280;36154;51.674;7.824;2023-04-09T05:22:22;101719.03;;;19.62;52.85
48872;BME280;36154;51.674;7.824;2023-04-09T05:24:47;101726.78;;;19.62;52.77
48872;BME280;36154;51.674;7.824;2023-04-09T05:27:12;101721.59;;;19.62;52.71
48872;BME280;36154;51.674;7.824;2023-04-09T05:29:38;101723.31;;;19.61;52.55
48872;BME280;36154;51.674;7.824;2023-04-09T05:32:03;101719.88;;;19.61;52.64
48872;BME280;36154;51.674;7.824;2023-04-09T05:34:29;101725.91;;;19.61;52.63
48872;BME280;36154;51.674;7.824;2023-04-09T05:36:54;101724.19;;;19.62;52.46
48872;BME280;36154;51.674;7.824;2023-04-09T05:39:19;101719.88;;;19.61;52.71
48872;BME280;36154;51.674;7.824;2023-04-09T05:41:45;101732.81;;;19.61;52.61
48872;BME280;36154;51.674;7.824;2023-04-09T05:44:11;101731.94;;;19.62;52.34
48872;BME280;36154;51.674;7.824;2023-04-09T05:46:36;101725.91;;;19.61;52.28
48872;BME280;36154;51.674;7.824;2023-04-09T05:49:01;101738.88;;;19.60;52.34
48872;BME280;36154;51.674;7.824;2023-04-09T05:51:27;101737.13;;;19.62;52.24
48872;BME280;36154;51.674;7.824;2023-04-09T05:53:52;101736.25;;;19.61;52.49
48872;BME280;36154;51.674;7.824;2023-04-09T05:56:18;101740.56;;;19.61;52.21
48872;BME280;36154;51.674;7.824;2023-04-09T05:58:43;101735.38;;;19.61;52.61
48872;BME280;36154;51.674;7.824;2023-04-09T06:01:08;101736.25;;;19.61;52.26
48872;BME280;36154;51.674;7.824;2023-04-09T06:03:34;101748.31;;;19.61;52.26
48872;BME280;36154;51.674;7.824;2023-04-09T06:05:59;101745.72;;;19.61;52.19
48872;BME280;36154;51.674;7.824;2023-04-09T06:08:25;101744.88;;;19.62;52.09
48872;BME280;36154;51.674;7.824;2023-04-09T06:10:50;101746.59;;;19.61;52.13
48872;BME280;36154;51.674;7.824;2023-04-09T06:13:15;101748.31;;;19.61;52.05
48872;BME280;36154;51.674;7.824;2023-04-09T06:15:40;101747.47;;;19.62;52.16
48872;BME280;36154;51.674;7.824;2023-04-09T06:18:06;101752.63;;;19.62;52.02
48872;BME280;36154;51.674;7.824;2023-04-09T06:20:31;101752.63;;;19.62;52.08
48872;BME280;36154;51.674;7.824;2023-04-09T06:22:56;101759.53;;;19.63;52.01
48872;BME280;36154;51.674;7.824;2023-04-09T06:25:22;101754.38;;;19.63;52.08
48872;BME280;36154;51.674;7.824;2023-04-09T06:27:47;101751.78;;;19.60;51.82
48872;BME280;36154;51.674;7.824;2023-04-09T06:30:12;101757.81;;;19.65;51.88
48872;BME280;36154;51.674;7.824;2023-04-09T06:32:37;101753.47;;;19.62;51.88
48872;BME280;36154;51.674;7.824;2023-04-09T06:35:03;101765.56;;;19.65;52.33
48872;BME280;36154;51.674;7.824;2023-04-09T06:37:29;101765.56;;;19.65;52.08
48872;BME280;36154;51.674;7.824;2023-04-09T06:39:54;101764.69;;;19.66;52.03
48872;BME280;36154;51.674;7.824;2023-04-09T06:42:20;101764.69;;;19.66;52.14
48872;BME280;36154;51.674;7.824;2023-04-09T06:44:45;101768.16;;;19.66;52.13
48872;BME280;36154;51.674;7.824;2023-04-09T06:47:13;101766.41;;;19.67;52.09
48872;BME280;36154;51.674;7.824;2023-04-09T06:49:38;101762.97;;;19.66;52.02
48872;BME280;36154;51.674;7.824;2023-04-09T06:52:03;101769.00;;;19.67;52.12
48872;BME280;36154;51.674;7.824;2023-04-09T06:54:29;101772.44;;;19.67;51.91
48872;BME280;36154;51.674;7.824;2023-04-09T06:56:54;101766.41;;;19.67;51.96
48872;BME280;36154;51.674;7.824;2023-04-09T06:59:20;101773.28;;;19.68;51.96
48872;BME280;36154;51.674;7.824;2023-04-09T07:01:45;101768.13;;;19.68;51.79
48872;BME280;36154;51.674;7.824;2023-04-09T07:04:11;101768.13;;;19.68;51.86
48872;BME280;36154;51.674;7.824;2023-04-09T07:06:36;101768.13;;;19.68;51.58
48872;BME280;36154;51.674;7.824;2023-04-09T07:09:02;101767.25;;;19.67;51.73
48872;BME280;36154;51.674;7.824;2023-04-09T07:11:27;101757.78;;;19.68;51.63
48872;BME280;36154;51.674;7.824;2023-04-09T07:13:52;101767.25;;;19.69;51.73
48872;BME280;36154;51.674;7.824;2023-04-09T07:16:20;101762.94;;;19.68;52.04
48872;BME280;36154;51.674;7.824;2023-04-09T07:18:45;101761.22;;;19.68;51.65
48872;BME280;36154;51.674;7.824;2023-04-09T07:21:11;101766.41;;;19.68;51.59
48872;BME280;36154;51.674;7.824;2023-04-09T07:23:36;101768.13;;;19.68;51.55
48872;BME280;36154;51.674;7.824;2023-04-09T07:26:05;101760.34;;;19.69;51.53
48872;BME280;36154;51.674;7.824;2023-04-09T07:28:30;101765.53;;;19.69;51.41
48872;BME280;36154;51.674;7.824;2023-04-09T07:30:56;101767.25;;;19.69;51.43
48872;BME280;36154;51.674;7.824;2023-04-09T07:33:22;101765.53;;;19.69;51.43
48872;BME280;36154;51.674;7.824;2023-04-09T07:35:47;101771.56;;;19.70;51.27
48872;BME280;36154;51.674;7.824;2023-04-09T07:38:12;101766.41;;;19.70;51.48
48872;BME280;36154;51.674;7.824;2023-04-09T07:40:38;101776.75;;;19.70;51.21
48872;BME280;36154;51.674;7.824;2023-04-09T07:43:04;101771.56;;;19.70;51.34
48872;BME280;36154;51.674;7.824;2023-04-09T07:45:30;101774.16;;;19.71;51.42
48872;BME280;36154;51.674;7.824;2023-04-09T07:47:55;101772.41;;;19.70;51.21
48872;BME280;36154;51.674;7.824;2023-04-09T07:50:20;101778.44;;;19.71;51.28
48872;BME280;36154;51.674;7.824;2023-04-09T07:52:45;101771.56;;;19.70;50.99
48872;BME280;36154;51.674;7.824;2023-04-09T07:55:11;101775.00;;;19.70;51.20
48872;BME280;36154;51.674;7.824;2023-04-09T07:57:36;101768.97;;;19.71;51.11
48872;BME280;36154;51.674;7.824;2023-04-09T08:00:02;101772.41;;;19.70;51.05
48872;BME280;36154;51.674;7.824;2023-04-09T08:02:27;101774.16;;;19.71;51.11
48872;BME280;36154;51.674;7.824;2023-04-09T08:04:53;101764.66;;;19.72;51.10
48872;BME280;36154;51.674;7.824;2023-04-09T08:07:18;101775.84;;;19.71;50.98
48872;BME280;36154;51.674;7.824;2023-04-09T08:09:43;101776.75;;;19.71;50.86
48872;BME280;36154;51.674;7.824;2023-04-09T08:12:09;101772.41;;;19.72;50.92
48872;BME280;36154;51.674;7.824;2023-04-09T08:14:35;101775.00;;;19.72;50.80
48872;BME280;36154;51.674;7.824;2023-04-09T08:17:00;101775.84;;;19.72;50.93
48872;BME280;36154;51.674;7.824;2023-04-09T08:19:26;101777.59;;;19.72;50.85
48872;BME280;36154;51.674;7.824;2023-04-09T08:21:51;101769.81;;;19.72;50.89
48872;BME280;36154;51.674;7.824;2023-04-09T08:24:17;101771.53;;;19.73;50.90
48872;BME280;36154;51.674;7.824;2023-04-09T08:26:42;101769.81;;;19.72;51.00
48872;BME280;36154;51.674;7.824;2023-04-09T08:29:10;101766.34;;;19.73;50.64
48872;BME280;36154;51.674;7.824;2023-04-09T08:31:35;101770.66;;;19.72;50.77
48872;BME280;36154;51.674;7.824;2023-04-09T08:34:01;101775.00;;;19.69;50.72
48872;BME280;36154;51.674;7.824;2023-04-09T08:36:26;101777.56;;;19.73;50.70
48872;BME280;36154;51.674;7.824;2023-04-09T08:38:52;101769.81;;;19.73;50.68
48872;BME280;36154;51.674;7.824;2023-04-09T08:41:21;101773.25;;;19.74;50.51
48872;BME280;36154;51.674;7.824;2023-04-09T08:43:47;101771.53;;;19.73;50.34
48872;BME280;36154;51.674;7.824;2023-04-09T08:46:13;101778.41;;;19.74;50.42
48872;BME280;36154;51.674;7.824;2023-04-09T08:48:42;101771.53;;;19.73;50.50
48872;BME280;36154;51.674;7.824;2023-04-09T08:51:12;101770.66;;;19.74;50.41
48872;BME280;36154;51.674;7.824;2023-04-09T08:53:37;101775.84;;;19.74;50.35
48872;BME280;36154;51.674;7.824;2023-04-09T08:56:04;101771.53;;;19.73;50.29
48872;BME280;36154;51.674;7.824;2023-04-09T08:58:29;101765.50;;;19.74;50.38
48872;BME280;36154;51.674;7.824;2023-04-09T09:00:55;101762.06;;;19.73;50.21
48872;BME280;36154;51.674;7.824;2023-04-09T09:03:21;101765.50;;;19.74;50.35
48872;BME280;36154;51.674;7.824;2023-04-09T09:05:46;101755.16;;;19.74;50.19
48872;BME280;36154;51.674;7.824;2023-04-09T09:08:21;101752.56;;;19.74;50.38
48872;BME280;36154;51.674;7.824;2023-04-09T09:10:47;101756.00;;;19.74;50.00
48872;BME280;36154;51.674;7.824;2023-04-09T09:13:23;101745.72;;;19.70;50.16
48872;BME280;36154;51.674;7.824;2023-04-09T09:16:10;101752.56;;;19.74;50.53
48872;BME280;36154;51.674;7.824;2023-04-09T09:18:43;101749.97;;;19.74;50.27
48872;BME280;36154;51.674;7.824;2023-04-09T09:21:12;101750.84;;;19.73;50.10
48872;BME280;36154;51.674;7.824;2023-04-09T09:23:38;101752.56;;;19.74;50.04
48872;BME280;36154;51.674;7.824;2023-04-09T09:26:20;101756.00;;;19.74;50.10
48872;BME280;36154;51.674;7.824;2023-04-09T09:28:46;101752.56;;;19.74;50.12
48872;BME280;36154;51.674;7.824;2023-04-09T09:31:12;101754.28;;;19.75;50.12
48872;BME280;36154;51.674;7.824;2023-04-09T09:33:38;101750.84;;;19.73;50.04
48872;BME280;36154;51.674;7.824;2023-04-09T09:36:04;101754.28;;;19.75;49.99
48872;BME280;36154;51.674;7.824;2023-04-09T09:38:30;101755.13;;;19.75;50.09
48872;BME280;36154;51.674;7.824;2023-04-09T09:40:56;101754.28;;;19.75;50.11
48872;BME280;36154;51.674;7.824;2023-04-09T09:43:22;101743.94;;;19.75;49.96
48872;BME280;36154;51.674;7.824;2023-04-09T09:45:48;101746.53;;;19.75;50.10
48872;BME280;36154;51.674;7.824;2023-04-09T09:48:13;101745.66;;;19.76;49.96
48872;BME280;36154;51.674;7.824;2023-04-09T09:50:40;101744.81;;;19.75;49.96
48872;BME280;36154;51.674;7.824;2023-04-09T09:53:08;101749.13;;;19.75;49.88
48872;BME280;36154;51.674;7.824;2023-04-09T09:55:37;101745.66;;;19.76;49.83
48872;BME280;36154;51.674;7.824;2023-04-09T09:59:04;101743.06;;;19.76;49.79
48872;BME280;36154;51.674;7.824;2023-04-09T10:01:23;101735.31;;;19.76;49.98
48872;BME280;36154;51.674;7.824;2023-04-09T10:03:51;101737.88;;;19.76;49.86
48872;BME280;36154;51.674;7.824;2023-04-09T10:06:17;101735.31;;;19.76;49.79
48872;BME280;36154;51.674;7.824;2023-04-09T10:08:42;101737.03;;;19.77;49.69
48872;BME280;36154;51.674;7.824;2023-04-09T10:11:09;101735.28;;;19.78;49.74
48872;BME280;36154;51.674;7.824;2023-04-09T10:13:37;101730.13;;;19.79;49.60
48872;BME280;36154;51.674;7.824;2023-04-09T10:16:03;101723.25;;;19.78;49.50
48872;BME280;36154;51.674;7.824;2023-04-09T10:18:29;101726.66;;;19.80;49.42
48872;BME280;36154;51.674;7.824;2023-04-09T10:20:58;101731.84;;;19.80;49.67
48872;BME280;36154;51.674;7.824;2023-04-09T10:23:40;101709.44;;;19.79;49.38
48872;BME280;36154;51.674;7.824;2023-04-09T10:26:06;101716.31;;;19.80;49.43
48872;BME280;36154;51.674;7.824;2023-04-09T10:28:32;101709.44;;;19.76;49.35
48872;BME280;36154;51.674;7.824;2023-04-09T10:30:58;101712.84;;;19.81;49.23
48872;BME280;36154;51.674;7.824;2023-04-09T10:33:25;101719.75;;;19.82;49.42
48872;BME280;36154;51.674;7.824;2023-04-09T10:35:52;101713.72;;;19.82;49.25
48872;BME280;36154;51.674;7.824;2023-04-09T10:38:44;101700.78;;;19.82;49.14
48872;BME280;36154;51.674;7.824;2023-04-09T10:41:14;101709.41;;;19.82;49.34
48872;BME280;36154;51.674;7.824;2023-04-09T10:43:41;101703.38;;;19.83;49.35
48872;BME280;36154;51.674;7.824;2023-04-09T10:46:30;101699.06;;;19.82;49.29
48872;BME280;36154;51.674;7.824;2023-04-09T10:49:11;101689.56;;;19.83;49.32
48872;BME280;36154;51.674;7.824;2023-04-09T10:51:40;101696.47;;;19.82;49.32
48872;BME280;36154;51.674;7.824;2023-04-09T10:59:44;101684.38;;;19.84;49.08
48872;BME280;36154;51.674;7.824;2023-04-09T11:07:46;101681.78;;;19.84;49.25
48872;BME280;36154;51.674;7.824;2023-04-09T11:10:11;101681.78;;;19.84;49.13
48872;BME280;36154;51.674;7.824;2023-04-09T11:12:36;101680.94;;;19.84;49.12
48872;BME280;36154;51.674;7.824;2023-04-09T11:15:02;101678.34;;;19.85;48.97
48872;BME280;36154;51.674;7.824;2023-04-09T11:17:28;101677.50;;;19.85;48.90
48872;BME280;36154;51.674;7.824;2023-04-09T11:19:54;101674.03;;;19.84;48.94
48872;BME280;36154;51.674;7.824;2023-04-09T11:22:19;101672.31;;;19.85;48.96
48872;BME280;36154;51.674;7.824;2023-04-09T11:24:45;101671.44;;;19.84;49.04
48872;BME280;36154;51.674;7.824;2023-04-09T11:27:11;101668.00;;;19.85;49.03
48872;BME280;36154;51.674;7.824;2023-04-09T11:29:36;101668.84;;;19.87;48.95
48872;BME280;36154;51.674;7.824;2023-04-09T11:32:02;101665.41;;;19.87;48.83
48872;BME280;36154;51.674;7.824;2023-04-09T11:34:32;101660.22;;;19.87;48.88
48872;BME280;36154;51.674;7.824;2023-04-09T11:36:57;101666.25;;;19.87;48.57
48872;BME280;36154;51.674;7.824;2023-04-09T11:39:24;101667.97;;;19.88;48.71
48872;BME280;36154;51.674;7.824;2023-04-09T11:41:50;101668.81;;;19.89;48.81
48872;BME280;36154;51.674;7.824;2023-04-09T11:44:15;101663.63;;;19.90;48.59
48872;BME280;36154;51.674;7.824;2023-04-09T11:46:41;101663.63;;;19.90;48.80
48872;BME280;36154;51.674;7.824;2023-04-09T11:49:07;101664.50;;;19.91;48.66
48872;BME280;36154;51.674;7.824;2023-04-09T11:51:33;101666.22;;;19.90;48.45
48872;BME280;36154;51.674;7.824;2023-04-09T11:54:04;101655.88;;;19.90;48.70
48872;BME280;36154;51.674;7.824;2023-04-09T11:56:30;101657.63;;;19.90;48.50
48872;BME280;36154;51.674;7.824;2023-04-09T11:58:55;101657.59;;;19.91;48.39
48872;BME280;36154;51.674;7.824;2023-04-09T12:01:21;101659.31;;;19.92;48.52
48872;BME280;36154;51.674;7.824;2023-04-09T12:03:53;101659.31;;;19.92;48.41
48872;BME280;36154;51.674;7.824;2023-04-09T12:06:20;101661.03;;;19.93;48.34
48872;BME280;36154;51.674;7.824;2023-04-09T12:08:46;101659.28;;;19.96;48.41
48872;BME280;36154;51.674;7.824;2023-04-09T12:11:14;101647.19;;;19.94;48.33
48872;BME280;36154;51.674;7.824;2023-04-09T12:13:40;101652.38;;;19.96;48.17
48872;BME280;36154;51.674;7.824;2023-04-09T12:16:07;101654.09;;;19.96;48.30
48872;BME280;36154;51.674;7.824;2023-04-09T12:18:37;101646.31;;;19.99;48.21
48872;BME280;36154;51.674;7.824;2023-04-09T12:21:04;101655.81;;;19.98;48.07
48872;BME280;36154;51.674;7.824;2023-04-09T12:23:30;101650.66;;;19.97;47.43
48872;BME280;36154;51.674;7.824;2023-04-09T12:25:56;101654.13;;;19.92;44.82
48872;BME280;36154;51.674;7.824;2023-04-09T12:28:25;101649.09;;;19.80;41.23
48872;BME280;36154;51.674;7.824;2023-04-09T12:30:50;101649.22;;;19.62;39.84
48872;BME280;36154;51.674;7.824;2023-04-09T12:33:16;101644.13;;;19.52;39.11
48872;BME280;36154;51.674;7.824;2023-04-09T12:35:41;101642.50;;;19.41;37.51
48872;BME280;36154;51.674;7.824;2023-04-09T12:38:06;101644.28;;;19.31;37.13
48872;BME280;36154;51.674;7.824;2023-04-09T12:40:32;101640.00;;;19.28;37.77
48872;BME280;36154;51.674;7.824;2023-04-09T12:42:57;101639.09;;;19.31;38.07
48872;BME280;36154;51.674;7.824;2023-04-09T12:45:23;101649.44;;;19.34;38.94
48872;BME280;36154;51.674;7.824;2023-04-09T12:47:48;101649.41;;;19.37;39.38
48872;BME280;36154;51.674;7.824;2023-04-09T12:50:14;101645.97;;;19.38;39.95
48872;BME280;36154;51.674;7.824;2023-04-09T12:52:40;101646.81;;;19.40;40.55
48872;BME280;36154;51.674;7.824;2023-04-09T12:55:06;101650.22;;;19.42;40.86
48872;BME280;36154;51.674;7.824;2023-04-09T12:57:32;101640.72;;;19.44;41.19
48872;BME280;36154;51.674;7.824;2023-04-09T12:59:58;101645.91;;;19.44;41.57
48872;BME280;36154;51.674;7.824;2023-04-09T13:02:23;101633.84;;;19.46;41.80
48872;BME280;36154;51.674;7.824;2023-04-09T13:04:49;101637.28;;;19.48;41.92